Delta, Utah Weather observations

Data are for observation ending at time listed.
 Day   Time    Ave.   Ave.  Ave.  Vector   Max.   Stn.    Total    Solar   Ave.  
  of    of     Air    Rel.  Wind   Wind    Wind   Baro.  Precip.   Rad.    Soil  
Year   Day     Temp.  Hum.  Speed  Dir.    Gust   Pres.                    Temp. 
2016   (MST)    F      %     mph   deg.    mph     mb.     in.     W/m2     F   
------------------------------------------------------------------------------
 243   20:40   75.5    20    0.0     6      0.7   860.0    0.00       0    75.1
 243   20:50   74.6    23    0.5     6      1.3   860.1    0.00       0    75.1
 243   21:00   74.5    20    0.3     8      1.1   860.1    0.00       0    75.2
 243   21:10   73.9    19    0.0     0      0.0   860.1    0.00       0    75.1
 243   21:20   73.3    22    0.6     9      1.2   860.1    0.00       0    75.1
 243   21:30   73.6    19    0.6    35      2.0   860.1    0.00       0    75.0
 243   21:40   73.1    20    0.0     0      0.0   860.0    0.00       0    75.0
 243   21:50   72.1    22    0.0     0      0.0   860.0    0.00       0    74.9
 243   22:00   71.8    24    0.0     0      0.0   860.0    0.00       0    74.9
 243   22:10   72.2    21    2.0   152      4.8   860.1    0.00       0    74.8
 243   22:20   71.7    21    0.8   137      3.4   860.2    0.00       0    74.8
 243   22:30   70.2    22    0.6   168      4.7   860.2    0.00       0    74.7
 243   22:40   70.4    22    0.9   161      2.0   860.2    0.00       0    74.7
 243   22:50   70.2    23    1.1   143      1.9   860.1    0.00       0    74.7
 243   23:00   69.4    24    1.0   144      1.7   860.1    0.00       0    74.7
 243   23:10   69.6    23    1.5   150      2.0   860.2    0.00       0    74.6
 243   23:20   70.8    21    2.4   188      5.6   860.3    0.00       0    74.5
 243   23:30   70.4    23    2.6   186      5.8   860.5    0.00       0    74.4
 243   23:40   69.8    25    1.6   160      4.3   860.4    0.00       0    74.4
 243   23:50   72.7    22    1.8   168      4.6   860.4    0.00       0    74.3
 244    0:00   72.7    22    2.0   161      3.3   860.5    0.00       0    74.2
 244    0:10   73.2    22    2.7   152      5.0   860.6    0.00       0    74.1
 244    0:20   72.9    23    2.1   144      4.2   860.6    0.00       0    74.2
 244    0:30   72.1    24    2.1   148      3.8   860.7    0.00       0    74.0
 244    0:40   71.9    25    1.1   163      2.7   860.8    0.00       0    74.2
 244    0:50   71.4    25    1.6   142      2.5   860.8    0.00       0    74.0
 244    1:00   70.0    27    1.4   138      2.6   860.8    0.00       0    74.0
 244    1:10   69.4    28    1.5   139      2.1   860.8    0.00       0    74.0
 244    1:20   69.6    27    2.1   144      3.7   860.7    0.00       0    74.0
 244    1:30   69.8    27    2.8   146      3.9   860.7    0.00       0    73.9
 244    1:40   69.6    28    2.3   153      4.3   860.8    0.00       0    73.9
 244    1:50   69.5    28    2.3   150      3.8   860.8    0.00       0    73.8
 244    2:00   69.5    28    2.0   154      3.7   860.8    0.00       0    73.8
 244    2:10   69.2    29    2.5   145      3.8   860.8    0.00       0    73.7
 244    2:20   68.9    29    3.0   145      4.5   860.8    0.00       0    73.7
 244    2:30   69.2    29    2.6   144      4.0   860.8    0.00       0    73.7
 244    2:40   69.8    28    2.4   151      3.9   860.8    0.00       0    73.7
 244    2:50   69.7    28    3.0   146      4.5   860.8    0.00       0    73.7
 244    3:00   69.2    29    2.9   153      4.9   860.8    0.00       0    73.5
 244    3:10   69.3    29    2.7   152      4.7   860.9    0.00       0    73.6
 244    3:20   68.6    30    2.5   146      3.8   860.9    0.00       0    73.5
 244    3:30   67.3    33    2.3   137      4.3   861.0    0.00       0    73.5
 244    3:40   66.1    35    2.1   139      2.8   861.1    0.00       0    73.5
 244    3:50   66.4    33    2.1   147      3.4   861.1    0.00       0    73.4
 244    4:00   66.5    33    2.0   146      3.1   861.1    0.00       0    73.4
 244    4:10   66.0    33    2.1   141      3.6   861.2    0.00       0    73.3
 244    4:20   65.4    34    1.4   139      3.1   861.2    0.00       0    73.3
 244    4:30   64.4    37    0.9   130      1.6   861.2    0.00       0    73.2
 244    4:40   64.4    36    1.0   134      1.8   861.3    0.00       0    73.3
 244    4:50   65.0    35    1.3   143      2.2   861.3    0.00       0    73.2
 244    5:00   65.7    35    0.8   145      1.6   861.3    0.00       0    73.2
 244    5:10   64.9    36    0.3   146      1.1   861.4    0.00       0    73.1
 244    5:20   64.2    40    0.0     0      0.0   861.4    0.00       0    73.0
 244    5:30   63.7    41    0.0     0      0.0   861.4    0.00       0    73.1
 244    5:40   63.5    39    0.0     0      0.0   861.4    0.00       0    73.0
 244    5:50   63.2    39    0.0     0      0.0   861.5    0.00       0    73.0
 244    6:00   62.8    40    0.0     0      0.0   861.6    0.00       0    72.8
 244    6:10   62.5    41    0.0     0      0.0   861.7    0.00       5    72.8
 244    6:20   62.6    41    0.0    87      1.2   861.8    0.00       9    72.8
 244    6:30   62.7    40    0.9    80      1.8   861.9    0.00      12    72.8
 244    6:40   62.6    40    0.6    85      1.8   861.9    0.00      18    72.8
 244    6:50   62.7    40    0.7    93      1.9   861.9    0.00      27    72.7
 244    7:00   63.7    37    0.8    95      2.1   862.0    0.00      33    72.6
 244    7:10   64.3    37    0.0    82      0.7   862.1    0.00      37    72.5
 244    7:20   64.9    37    0.7    91      2.6   862.1    0.00      47    72.5
 244    7:30   66.3    34    0.7    82      1.8   862.2    0.00     131    72.4
 244    7:40   69.7    31    0.4    78      2.3   862.2    0.00     226    72.4
 244    7:50   72.8    30    0.7    88      2.4   862.2    0.00     274    72.4
 244    8:00   75.3    30    0.8    90      2.2   862.3    0.00     340    72.4
 244    8:10   76.2    28    0.6    73      2.2   862.3    0.00     192    72.4
 244    8:20   75.8    31    0.5    89      2.9   862.3    0.00     301    72.3
 244    8:30   77.2    24    1.8   152      3.9   862.3    0.00     399    72.3
 244    8:40   77.7    24    2.4   160      5.9   862.3    0.00     401    72.3
 244    8:50   78.1    24    2.3   156      4.8   862.3    0.00     418    72.2
 244    9:00   79.0    24    2.2   156      5.0   862.4    0.00     441    72.3
 244    9:10   79.4    23    2.5   155      5.3   862.4    0.00     466    72.3
 244    9:20   80.4    23    2.7   148      4.8   862.4    0.00     490    72.4
 244    9:30   81.2    22    2.9   146      5.2   862.4    0.00     514    72.4
 244    9:40   81.7    22    2.7   139      5.0   862.3    0.00     521    72.4
 244    9:50   82.3    21    2.7   157      4.7   862.3    0.00     557    72.4
 244   10:00   83.0    20    2.2   168      5.8   862.3    0.00     555    72.4
 244   10:10   83.6    20    2.1   174      5.2   862.3    0.00     599    72.5
 244   10:20   84.2    19    2.7   170      9.3   862.2    0.00     613    72.6
 244   10:30   84.8    18    3.3   172      8.1   862.1    0.00     574    72.7
 244   10:40   85.5    18    2.7   179      5.4   862.1    0.00     582    72.8
 244   10:50   86.4    17    3.6   203      7.7   862.0    0.00     566    72.9
 244   11:00   86.3    17    3.8   207      8.2   861.9    0.00     596    73.0
 244   11:10   87.1    16    3.5   199      8.4   861.8    0.00     687    73.1
 244   11:20   87.2    16    3.9   210      8.0   861.8    0.00     583    73.2
 244   11:30   86.5    16    2.6   194      6.2   861.7    0.00     267    73.3
 244   11:40   87.0    15    3.6   191      9.1   861.6    0.00     413    73.5
 244   11:50   87.1    17    2.1   207      4.9   861.4    0.00     381    73.6
 244   12:00   87.2    18    1.9   234      5.5   861.3    0.00     672    73.7
 244   12:10   88.9    15    1.3   249      3.7   861.3    0.00     634    73.8
 244   12:20   89.3    15    1.6   259      3.4   861.1    0.00     737    73.8
 244   12:30   89.3    18    1.5   104      3.9   861.0    0.00     627    73.9
 244   12:40   89.7    16    2.2   257      6.9   860.9    0.00     625    74.1
 244   12:50   89.2    16    1.5   224      5.3   860.9    0.00     321    74.2
 244   13:00   87.4    15    1.4   230      3.9   860.8    0.00     293    74.4
 244   13:10   87.9    15    2.3   218      4.5   860.7    0.00     211    74.6
 244   13:20   87.7    16    1.2   225      4.6   860.5    0.00     516    74.7
 244   13:30   89.7    15    2.7   211      9.1   860.4    0.00     754    74.7
 244   13:40   90.0    14    3.9   206      9.7   860.3    0.00     641    74.9
 244   13:50   89.8    14    2.6   230      6.1   860.1    0.00     505    74.9
 244   14:00   90.2    14    2.8   249      5.6   860.0    0.00     696    75.1
 244   14:10   90.6    14    2.4   252      6.1   859.9    0.00     701    75.1
 244   14:20   90.5    14    2.2   254      5.6   859.8    0.00     674    75.1
 244   14:30   91.0    14    2.2   214      5.3   859.7    0.00     661    75.1
 244   14:40   90.9    13    2.5   249      6.5   859.6    0.00     617    75.1
 244   14:50   90.7    13    1.9   233      5.0   859.5    0.00     586    75.1
 244   15:00   91.1    13    3.0   207      7.1   859.4    0.00     532    75.1
 244   15:10   89.9    14    3.6   206      8.9   859.4    0.00     196    75.2
 244   15:20   89.8    14    2.7   221      5.4   859.3    0.00     578    75.4
 244   15:30   91.0    14    1.5   159      3.5   859.2    0.00     545    75.3
 244   15:40   91.1    13    1.9    65      5.0   859.1    0.00     494    75.5
 244   15:50   90.8    13    0.8   282      2.3   859.0    0.00     155    75.6
 244   16:00   90.1    15    1.5   285      4.8   858.9    0.00     144    75.7
 244   16:10   90.9    14    2.2   235      8.2   858.8    0.00     124    75.7
 244   16:20   91.0    12    2.9   238      6.4   858.7    0.00      74    75.8
 244   16:30   90.9    13    2.2   219      5.0   858.7    0.00      73    75.9
 244   16:40   90.4    13    2.8   198      5.9   858.6    0.00      50    75.8
 244   16:50   90.0    13    2.0   202      3.6   858.6    0.00      93    76.0
 244   17:00   90.4    13    1.3   188      2.9   858.5    0.00     111    76.0
 244   17:10   90.3    13    0.9   243      3.1   858.4    0.00     105    75.9
 244   17:20   90.3    14    0.9   220      2.8   858.4    0.00     103    76.0
 244   17:30   90.2    15    1.4   144      4.2   858.3    0.00      83    76.0
 244   17:40   89.9    13    2.7   145      4.5   858.3    0.00      66    76.0
 244   17:50   89.3    13    2.7   144      4.2   858.3    0.00      53    76.1
 244   18:00   88.4    15    1.5   132      2.5   858.2    0.00      47    76.2
 244   18:10   87.6    15    1.6   130      2.7   858.1    0.00      48    76.2
 244   18:20   87.2    16    1.2   190      3.1   858.2    0.00      37    76.2
 244   18:30   87.0    16    0.8   199      2.3   858.2    0.00      33    76.3
 244   18:40   86.2    17    0.6   208      2.3   858.2    0.00      23    76.3
 244   18:50   85.6    17    0.6   182      2.0   858.3    0.00      13    76.3
 244   19:00   84.4    19    0.9   189      2.3   858.2    0.00       7    76.3
 244   19:10   83.5    18    1.2   200      2.7   858.3    0.00       2    76.3
 244   19:20   83.5    18    1.0   206      2.4   858.3    0.00       0    76.3
 244   19:30   83.0    17    1.0   208      1.9   858.3    0.00       0    76.3
 244   19:40   83.0    17    1.1   196      2.5   858.4    0.00       0    76.3
 244   19:50   82.9    18    1.1   176      2.4   858.5    0.00       0    76.3
 244   20:00   81.4    20    0.6   178      1.8   858.6    0.00       0    76.3
 244   20:10   80.6    20    1.0   177      2.3   858.7    0.00       0    76.2
 244   20:20   81.8    18    1.4   183      3.3   858.7    0.00       0    76.3
 244   20:30   80.6    20    1.8   135      3.1   858.8    0.00       0    76.1

Return to Delta, Utah graphs page.


Western Regional Climate Center,wrcc@dri.edu